sensor_id;sensor_type;location;lat;lon;timestamp;temperature;humidity
55269;DHT22;41131;42.990;21.954;2022-12-05T00:52:40;231.20;2252.80
55269;DHT22;41131;42.990;21.954;2022-12-05T00:55:06;231.10;2252.80
55269;DHT22;41131;42.990;21.954;2022-12-05T00:57:32;231.00;2252.80
55269;DHT22;41131;42.990;21.954;2022-12-05T00:59:58;230.90;2252.80
55269;DHT22;41131;42.990;21.954;2022-12-05T02:05:57;230.80;2252.80
55269;DHT22;41131;42.990;21.954;2022-12-05T02:08:23;230.40;2252.80
55269;DHT22;41131;42.990;21.954;2022-12-05T02:10:54;205.70;2252.80
55269;DHT22;41131;42.990;21.954;2022-12-05T02:16:35;205.70;2252.80
55269;DHT22;41131;42.990;21.954;2022-12-05T02:30:19;205.70;2252.80
55269;DHT22;41131;42.990;21.954;2022-12-05T02:35:32;205.60;2252.80
55269;DHT22;41131;42.990;21.954;2022-12-05T02:38:15;205.70;2252.80
55269;DHT22;41131;42.990;21.954;2022-12-05T02:43:24;205.70;2252.80
55269;DHT22;41131;42.990;21.954;2022-12-05T02:45:57;205.70;2252.80
55269;DHT22;41131;42.990;21.954;2022-12-05T02:48:27;205.70;2252.80
55269;DHT22;41131;42.990;21.954;2022-12-05T02:50:54;205.70;2252.80
55269;DHT22;41131;42.990;21.954;2022-12-05T02:53:23;205.70;2252.80
55269;DHT22;41131;42.990;21.954;2022-12-05T02:55:49;205.70;2252.80
55269;DHT22;41131;42.990;21.954;2022-12-05T02:58:23;205.70;2252.80
55269;DHT22;41131;42.990;21.954;2022-12-05T03:00:53;205.70;2252.80
55269;DHT22;41131;42.990;21.954;2022-12-05T03:03:21;205.70;2252.80
55269;DHT22;41131;42.990;21.954;2022-12-05T03:08:50;205.60;2252.80
55269;DHT22;41131;42.990;21.954;2022-12-05T03:11:17;205.60;2252.80
55269;DHT22;41131;42.990;21.954;2022-12-05T03:13:55;205.50;2252.80
55269;DHT22;41131;42.990;21.954;2022-12-05T03:16:28;205.50;2252.80
55269;DHT22;41131;42.990;21.954;2022-12-05T03:18:55;205.50;2252.80
55269;DHT22;41131;42.990;21.954;2022-12-05T03:24:07;205.50;2252.80
55269;DHT22;41131;42.990;21.954;2022-12-05T03:31:53;205.50;2252.80
55269;DHT22;41131;42.990;21.954;2022-12-05T03:37:34;205.50;2252.80
55269;DHT22;41131;42.990;21.954;2022-12-05T03:42:54;205.50;2252.80
55269;DHT22;41131;42.990;21.954;2022-12-05T03:46:16;205.60;2252.80
55269;DHT22;41131;42.990;21.954;2022-12-05T04:21:33;205.60;2252.80
55269;DHT22;41131;42.990;21.954;2022-12-05T04:24:11;205.20;2252.80
55269;DHT22;41131;42.990;21.954;2022-12-05T04:30:12;205.20;2252.80
55269;DHT22;41131;42.990;21.954;2022-12-05T04:47:50;205.40;2252.80
55269;DHT22;41131;42.990;21.954;2022-12-05T04:50:19;205.30;2252.80
55269;DHT22;41131;42.990;21.954;2022-12-05T04:52:48;205.00;2252.80
55269;DHT22;41131;42.990;21.954;2022-12-05T04:55:19;180.10;2252.80
55269;DHT22;41131;42.990;21.954;2022-12-05T09:22:31;256.10;2252.80
55269;DHT22;41131;42.990;21.954;2022-12-05T09:24:57;231.20;2252.80
55269;DHT22;41131;42.990;21.954;2022-12-05T09:27:26;231.30;2252.80
55269;DHT22;41131;42.990;21.954;2022-12-05T09:29:52;231.30;2252.80
55269;DHT22;41131;42.990;21.954;2022-12-05T09:32:18;231.30;2252.80
55269;DHT22;41131;42.990;21.954;2022-12-05T09:49:54;231.10;2252.80
55269;DHT22;41131;42.990;21.954;2022-12-05T09:52:28;231.10;2252.80
55269;DHT22;41131;42.990;21.954;2022-12-05T09:54:55;230.90;2252.80
55269;DHT22;41131;42.990;21.954;2022-12-05T09:57:31;230.90;2252.80
55269;DHT22;41131;42.990;21.954;2022-12-05T09:59:59;231.30;2252.80
55269;DHT22;41131;42.990;21.954;2022-12-05T10:18:08;256.30;2252.80
55269;DHT22;41131;42.990;21.954;2022-12-05T10:23:30;256.80;2252.80
55269;DHT22;41131;42.990;21.954;2022-12-05T10:25:59;281.80;2278.40
55269;DHT22;41131;42.990;21.954;2022-12-05T10:33:44;256.90;2252.80
55269;DHT22;41131;42.990;21.954;2022-12-05T10:36:14;256.60;2252.80
55269;DHT22;41131;42.990;21.954;2022-12-05T10:38:42;256.80;2252.80
55269;DHT22;41131;42.990;21.954;2022-12-05T10:41:11;281.70;2278.40
55269;DHT22;41131;42.990;21.954;2022-12-05T10:43:40;281.60;2278.40
55269;DHT22;41131;42.990;21.954;2022-12-05T10:46:06;256.90;2252.80
55269;DHT22;41131;42.990;21.954;2022-12-05T10:48:37;281.90;2278.40
55269;DHT22;41131;42.990;21.954;2022-12-05T10:51:04;281.80;2278.40
55269;DHT22;41131;42.990;21.954;2022-12-05T10:53:47;282.00;2278.40
55269;DHT22;41131;42.990;21.954;2022-12-05T10:56:43;281.80;2278.40
55269;DHT22;41131;42.990;21.954;2022-12-05T10:59:17;282.10;2278.40
55269;DHT22;41131;42.990;21.954;2022-12-05T11:34:23;307.90;2304.00
55269;DHT22;41131;42.990;21.954;2022-12-05T11:37:28;308.10;2304.00
55269;DHT22;41131;42.990;21.954;2022-12-05T11:39:56;307.80;2304.00
55269;DHT22;41131;42.990;21.954;2022-12-05T11:42:34;307.80;2304.00
55269;DHT22;41131;42.990;21.954;2022-12-05T12:04:36;307.70;2304.00
55269;DHT22;41131;42.990;21.954;2022-12-05T12:07:24;307.80;2304.00
55269;DHT22;41131;42.990;21.954;2022-12-05T12:21:22;308.10;2304.00
55269;DHT22;41131;42.990;21.954;2022-12-05T12:24:02;308.10;2304.00
55269;DHT22;41131;42.990;21.954;2022-12-05T12:40:21;332.90;2329.60
55269;DHT22;41131;42.990;21.954;2022-12-05T12:48:37;333.00;2329.60
55269;DHT22;41131;42.990;21.954;2022-12-05T12:51:11;333.00;2329.60
55269;DHT22;41131;42.990;21.954;2022-12-05T12:53:46;333.20;2329.60
55269;DHT22;41131;42.990;21.954;2022-12-05T13:01:38;333.60;2329.60
55269;DHT22;41131;42.990;21.954;2022-12-05T13:11:48;333.60;2329.60
55269;DHT22;41131;42.990;21.954;2022-12-05T13:14:17;333.70;2329.60
55269;DHT22;41131;42.990;21.954;2022-12-05T13:16:48;358.50;2329.60
55269;DHT22;41131;42.990;21.954;2022-12-05T13:19:26;333.50;2329.60
55269;DHT22;41131;42.990;21.954;2022-12-05T13:21:56;333.60;2329.60
55269;DHT22;41131;42.990;21.954;2022-12-05T13:24:25;333.60;2329.60
55269;DHT22;41131;42.990;21.954;2022-12-05T13:26:51;333.70;2329.60
55269;DHT22;41131;42.990;21.954;2022-12-05T16:32:47;307.20;2304.00
55269;DHT22;41131;42.990;21.954;2022-12-05T16:40:36;282.40;2278.40
55269;DHT22;41131;42.990;21.954;2022-12-05T16:43:04;282.40;2278.40
55269;DHT22;41131;42.990;21.954;2022-12-05T16:45:38;282.40;2278.40
55269;DHT22;41131;42.990;21.954;2022-12-05T16:48:17;282.50;2278.40
55269;DHT22;41131;42.990;21.954;2022-12-05T16:50:44;282.40;2278.40
55269;DHT22;41131;42.990;21.954;2022-12-05T16:55:37;282.40;2278.40
55269;DHT22;41131;42.990;21.954;2022-12-05T16:58:03;282.50;2278.40
55269;DHT22;41131;42.990;21.954;2022-12-05T17:00:30;282.50;2278.40
55269;DHT22;41131;42.990;21.954;2022-12-05T17:02:56;282.40;2278.40
55269;DHT22;41131;42.990;21.954;2022-12-05T17:05:22;282.40;2278.40
55269;DHT22;41131;42.990;21.954;2022-12-05T17:07:49;282.40;2278.40
55269;DHT22;41131;42.990;21.954;2022-12-05T17:10:15;282.30;2278.40
55269;DHT22;41131;42.990;21.954;2022-12-05T17:12:41;282.30;2278.40
55269;DHT22;41131;42.990;21.954;2022-12-05T17:15:18;282.10;2278.40
55269;DHT22;41131;42.990;21.954;2022-12-05T17:17:44;282.00;2278.40
55269;DHT22;41131;42.990;21.954;2022-12-05T17:20:10;282.00;2278.40
55269;DHT22;41131;42.990;21.954;2022-12-05T17:22:39;281.90;2278.40
55269;DHT22;41131;42.990;21.954;2022-12-05T17:25:31;281.80;2278.40
55269;DHT22;41131;42.990;21.954;2022-12-05T17:28:00;281.80;2278.40
55269;DHT22;41131;42.990;21.954;2022-12-05T17:30:26;281.80;2278.40
55269;DHT22;41131;42.990;21.954;2022-12-05T17:32:52;281.80;2278.40
55269;DHT22;41131;42.990;21.954;2022-12-05T17:35:20;281.80;2278.40
55269;DHT22;41131;42.990;21.954;2022-12-05T17:37:47;281.80;2278.40
55269;DHT22;41131;42.990;21.954;2022-12-05T17:40:13;281.80;2278.40
55269;DHT22;41131;42.990;21.954;2022-12-05T17:42:39;281.70;2278.40
55269;DHT22;41131;42.990;21.954;2022-12-05T17:45:10;256.90;2252.80
55269;DHT22;41131;42.990;21.954;2022-12-05T17:47:36;256.90;2252.80
55269;DHT22;41131;42.990;21.954;2022-12-05T17:50:03;256.90;2252.80
55269;DHT22;41131;42.990;21.954;2022-12-05T17:52:29;256.90;2252.80
55269;DHT22;41131;42.990;21.954;2022-12-05T17:54:55;256.90;2252.80
55269;DHT22;41131;42.990;21.954;2022-12-05T17:57:21;256.90;2252.80
55269;DHT22;41131;42.990;21.954;2022-12-05T17:59:46;281.60;2278.40
55269;DHT22;41131;42.990;21.954;2022-12-05T18:02:12;281.60;2278.40
55269;DHT22;41131;42.990;21.954;2022-12-05T18:04:39;256.90;2252.80
55269;DHT22;41131;42.990;21.954;2022-12-05T18:07:05;256.70;2252.80
55269;DHT22;41131;42.990;21.954;2022-12-05T18:09:31;256.80;2252.80
55269;DHT22;41131;42.990;21.954;2022-12-05T18:11:56;281.60;2278.40
55269;DHT22;41131;42.990;21.954;2022-12-05T19:06:09;256.20;2252.80
55269;DHT22;41131;42.990;21.954;2022-12-05T19:08:35;231.20;2252.80
55269;DHT22;41131;42.990;21.954;2022-12-05T19:11:05;231.20;2252.80
55269;DHT22;41131;42.990;21.954;2022-12-05T19:13:31;231.30;2252.80
55269;DHT22;41131;42.990;21.954;2022-12-05T19:16:04;231.20;2252.80
55269;DHT22;41131;42.990;21.954;2022-12-05T19:18:30;231.30;2252.80
55269;DHT22;41131;42.990;21.954;2022-12-05T19:20:56;231.30;2252.80
55269;DHT22;41131;42.990;21.954;2022-12-05T19:23:22;231.30;2252.80
55269;DHT22;41131;42.990;21.954;2022-12-05T19:25:48;231.30;2252.80
55269;DHT22;41131;42.990;21.954;2022-12-05T19:28:18;231.20;2252.80
55269;DHT22;41131;42.990;21.954;2022-12-05T19:30:43;231.20;2252.80
55269;DHT22;41131;42.990;21.954;2022-12-05T19:33:09;256.00;2252.80
55269;DHT22;41131;42.990;21.954;2022-12-05T19:35:35;231.20;2252.80
55269;DHT22;41131;42.990;21.954;2022-12-05T19:38:01;231.20;2252.80
55269;DHT22;41131;42.990;21.954;2022-12-05T19:40:27;231.10;2252.80
55269;DHT22;41131;42.990;21.954;2022-12-05T19:42:52;231.10;2252.80
55269;DHT22;41131;42.990;21.954;2022-12-05T19:45:18;231.10;2252.80
55269;DHT22;41131;42.990;21.954;2022-12-05T19:47:44;231.20;2252.80
55269;DHT22;41131;42.990;21.954;2022-12-05T19:50:10;231.00;2252.80
55269;DHT22;41131;42.990;21.954;2022-12-05T19:52:35;231.00;2252.80
55269;DHT22;41131;42.990;21.954;2022-12-05T19:55:01;230.90;2252.80
55269;DHT22;41131;42.990;21.954;2022-12-05T19:57:27;230.90;2252.80
55269;DHT22;41131;42.990;21.954;2022-12-05T19:59:52;230.90;2252.80
55269;DHT22;41131;42.990;21.954;2022-12-05T20:02:35;230.80;2252.80
55269;DHT22;41131;42.990;21.954;2022-12-05T20:05:01;230.80;2252.80
55269;DHT22;41131;42.990;21.954;2022-12-05T20:51:30;230.80;2252.80
55269;DHT22;41131;42.990;21.954;2022-12-05T20:53:57;230.50;2252.80
55269;DHT22;41131;42.990;21.954;2022-12-05T20:56:25;230.50;2252.80
55269;DHT22;41131;42.990;21.954;2022-12-05T20:58:54;230.60;2252.80
55269;DHT22;41131;42.990;21.954;2022-12-05T21:01:23;230.40;2252.80
55269;DHT22;41131;42.990;21.954;2022-12-05T21:03:50;205.70;2252.80
55269;DHT22;41131;42.990;21.954;2022-12-05T21:06:31;205.70;2252.80
55269;DHT22;41131;42.990;21.954;2022-12-05T21:08:57;205.70;2252.80
55269;DHT22;41131;42.990;21.954;2022-12-05T21:11:24;205.70;2252.80
55269;DHT22;41131;42.990;21.954;2022-12-05T21:13:51;205.70;2252.80
55269;DHT22;41131;42.990;21.954;2022-12-05T21:16:19;205.70;2252.80
55269;DHT22;41131;42.990;21.954;2022-12-05T21:18:46;205.60;2252.80
55269;DHT22;41131;42.990;21.954;2022-12-05T21:21:14;205.60;2252.80
55269;DHT22;41131;42.990;21.954;2022-12-05T21:23:41;205.60;2252.80
55269;DHT22;41131;42.990;21.954;2022-12-05T21:26:10;205.70;2252.80
55269;DHT22;41131;42.990;21.954;2022-12-05T23:35:55;204.80;2252.80
